Terminal Aerodrome Forecast
Issued by NWS Honolulu, HI

Home | Current Version | Previous Version | Text Only | Print | Product List | Glossary On
Versions: 1 2 3 4 5 6 7 8 9 10 11 12 13 14 15 16 17 18 19 20 21 22 23 24 25
000
FTPA31 PHFO 051011 AAB
TAFHNL
TAF AMD
PHNL 051011Z 0510/0612 VRB04KT P6SM VCSH SCT025 BKN100 OVC200
      TEMPO 0510/0512 -SHRA
     FM052000 18008KT P6SM SCT025 SCT050
     FM060500 VRB04KT P6SM SCT025 SCT050=

USA.gov is the U.S. government's official web portal to all federal, state and local government web resources and services.